UWWW

Kurumoch International Airport

Samara, Russian Federation
TAF UWWW 182000Z 1821/1921 14003MPS 0300 FZFG VV002 TXM09/1911Z TNM11/1902Z TEMPO 1821/1908 VRB01MPS 0800 -SN FZFG VV003 FM190800 06003MPS 2100 -SN BR OVC007 TEMPO 1908/1921 VRB01MPS 0300 FZFG VV002
Issued Valid From Valid To
Dec-18 @ 20:00 UTC
(3 hours ago)
Dec-18 @ 21:00 UTC
(2 hours ago)
Dec-19 @ 21:00 UTC
(in 22 hours)
Dec-18 @ 21:00 to Dec-19 @ 08:00
TAF UWWW 182000Z 1821/1921 14003MPS 0300 FZFG VV002 TXM09/1911Z TNM11/1902Z
Wind Visibility Clouds Conditions
140° at 6 knots 306 meters
  • Vertical visibility at 200' AGL
  • Freezing
  • Fog
Temporary Dec-18 @ 21:00 to Dec-19 @ 08:00
TEMPO 1821/1908 VRB01MPS 0800 -SN FZFG VV003
Wind Visibility Clouds Conditions
Variable at 2 knots 805 meters
  • Vertical visibility at 300' AGL
  • Light Snow
  • Freezing
  • Fog
From Dec-19 @ 08:00 to Dec-19 @ 21:00
FM190800 06003MPS 2100 -SN BR OVC007
Wind Visibility Clouds Conditions
60° at 6 knots 2,092 meters
  • Overcast at 700' AGL
  • Light Snow
  • Mist
Temporary Dec-19 @ 08:00 to Dec-19 @ 21:00
TEMPO 1908/1921 VRB01MPS 0300 FZFG VV002
Wind Visibility Clouds Conditions
Variable at 2 knots 306 meters
  • Vertical visibility at 200' AGL
  • Freezing
  • Fog
TAF UWWW 182000Z 1821/1921 14003MPS 0300 FZFG VV002 TXM09/1911Z TNM11/1902Z TEMPO 1821/1908 VRB01MPS 0800 -SN FZFG VV003 FM190800 06003MPS 2100 -SN BR OVC007 TEMPO 1908/1921 VRB01MPS 0300 FZFG VV002
Issued Dec-18 @ 20:00 UTC
(3 hours ago)
Valid From Dec-18 @ 21:00 UTC
(2 hours ago)
Valid To Dec-19 @ 21:00 UTC
(in 22 hours)
Dec-18 @ 21:00 - Dec-19 @ 08:00
Wind Visibility
140° at 6 knots 306 meters
Clouds
  • Vertical visibility at 200' AGL
Conditions
  • Freezing
  • Fog
Temporary Dec-18 @ 21:00 - Dec-19 @ 08:00
Wind Visibility
Variable at 2 knots 805 meters
Clouds
  • Vertical visibility at 300' AGL
Conditions
  • Light Snow
  • Freezing
  • Fog
From Dec-19 @ 08:00 - Dec-19 @ 21:00
Wind Visibility
60° at 6 knots 2,092 meters
Clouds
  • Overcast at 700' AGL
Conditions
  • Light Snow
  • Mist
Temporary Dec-19 @ 08:00 - Dec-19 @ 21:00
Wind Visibility
Variable at 2 knots 306 meters
Clouds
  • Vertical visibility at 200' AGL
Conditions
  • Freezing
  • Fog